Topaz Ranch Estates, Nevada
Current Conditions -  °F | °C
As of 8:52 PM on Monday 22 Dec 2014 (Local Time) from KBAN Reporting Station
Clear Clear  
Wind Chill: 32°   Ceiling: Unl
Heat Index: 32°   Visibility: NA
Dew Point: 26°   Wind: 0mph
Humidity: 79%   Direction: NA
Pressure: 30.35"   Gusts: NA
Location:  38.7596°N, 119.34°W
Report Text: KBAN 230452Z AUTO 00000KT CLR 00/M03 A3035 RMK AO2 SLP288 T00001033 FZRANO $
Loading
Personal Weather Stations






























Interactive Weather Map New forecast layout! Learn more

10-Day Weather Forecast

Advertisements
Track Severe Weather on mobile